Time;durP1;ratioP1;P1;durP2;ratioP2;P2;SDS_P1;SDS_P2;PMS_P1;PMS_P2;Temp;Humidity;BMP_temperature;BMP_pressure;BME280_temperature;BME280_humidity;BME280_pressure;Samples;Min_cycle;Max_cycle;Signal;HPM_P1;HPM_P2
2022/03/09 00:17:28;;;;;;;13.50;8.73;;;2.50;83.20;;;;;;4329459;26;20245;-91
2022/03/09 00:23:07;;;;;;;14.93;7.82;;;2.30;83.60;;;;;;5002977;28;20217;-90
2022/03/09 00:25:49;;;;;;;12.95;7.72;;;2.50;84.00;;;;;;5000204;28;20267;-91
2022/03/09 00:28:27;;;;;;;16.33;8.60;;;2.60;84.30;;;;;;5000818;28;20250;-90
2022/03/09 00:34:15;;;;;;;14.48;7.45;;;2.40;83.60;;;;;;4998871;28;20215;-90
2022/03/09 00:37:02;;;;;;;12.00;7.75;;;2.40;84.00;;;;;;5000608;28;20235;-90
2022/03/09 00:39:47;;;;;;;16.13;8.30;;;2.50;84.00;;;;;;5000487;28;20211;-90
2022/03/09 00:42:22;;;;;;;13.43;8.52;;;2.60;83.70;;;;;;5000697;28;20214;-90
2022/03/09 00:45:03;;;;;;;13.82;7.60;;;2.60;83.30;;;;;;5004645;28;20210;-89
2022/03/09 00:50:50;;;;;;;14.85;8.32;;;2.40;84.20;;;;;;4986129;28;20189;-89
2022/03/09 00:53:53;;;;;;;16.60;7.85;;;2.30;84.70;;;;;;5017314;28;20195;-90
2022/03/09 00:56:29;;;;;;;12.73;7.25;;;2.10;84.70;;;;;;5017944;28;20229;-90
2022/03/09 01:04:49;;;;;;;18.77;8.20;;;2.00;86.40;;;;;;4963742;28;20252;-90
2022/03/09 01:07:23;;;;;;;14.68;7.45;;;2.00;86.40;;;;;;5000451;28;20238;-89
2022/03/09 01:09:59;;;;;;;12.70;8.45;;;2.00;86.70;;;;;;4998767;28;20228;-90
2022/03/09 01:12:35;;;;;;;15.07;9.27;;;1.50;86.60;;;;;;4999691;28;20230;-90
2022/03/09 01:15:10;;;;;;;14.18;7.22;;;2.00;87.30;;;;;;5006182;28;20183;-90
2022/03/09 01:17:52;;;;;;;17.65;8.88;;;2.00;87.50;;;;;;5007761;28;20230;-91
2022/03/09 01:20:28;;;;;;;14.48;8.70;;;2.00;87.60;;;;;;5003436;28;20233;-90
2022/03/09 01:23:13;;;;;;;14.60;9.05;;;2.00;87.40;;;;;;5018185;28;20180;-89
2022/03/09 01:26:07;;;;;;;14.07;8.38;;;2.10;87.50;;;;;;5011262;28;20233;-88
2022/03/09 01:29:07;;;;;;;20.35;8.65;;;2.20;87.50;;;;;;5004639;28;20208;-90
2022/03/09 01:31:35;;;;;;;21.85;8.73;;;1.90;87.70;;;;;;5014451;28;20222;-91
2022/03/09 01:34:07;;;;;;;17.55;10.25;;;2.20;88.20;;;;;;5011673;28;20217;-91
2022/03/09 01:36:34;;;;;;;15.25;9.00;;;2.00;88.20;;;;;;5005546;28;20231;-91
2022/03/09 01:39:12;;;;;;;16.67;8.90;;;2.00;88.70;;;;;;5008657;28;20217;-91
2022/03/09 01:41:39;;;;;;;17.38;9.27;;;1.90;89.00;;;;;;5014838;28;20203;-89
2022/03/09 01:44:09;;;;;;;17.13;8.63;;;2.00;89.70;;;;;;5006834;28;20211;-90
2022/03/09 01:46:38;;;;;;;14.35;9.68;;;1.90;90.20;;;;;;5008954;28;20226;-90
2022/03/09 01:49:12;;;;;;;12.35;8.18;;;1.80;90.30;;;;;;5006954;28;20218;-90
2022/03/09 01:51:55;;;;;;;14.05;8.55;;;1.80;90.40;;;;;;5020536;28;20194;-89
2022/03/09 01:54:28;;;;;;;12.60;7.78;;;1.80;90.40;;;;;;5021065;28;20219;-90
2022/03/09 01:57:05;;;;;;;17.20;8.18;;;1.80;90.40;;;;;;5016059;28;20304;-90
2022/03/09 01:59:34;;;;;;;13.90;8.32;;;1.70;90.40;;;;;;5003320;28;20211;-89
2022/03/09 02:02:06;;;;;;;20.23;8.63;;;1.70;90.50;;;;;;5002043;28;20274;-91
2022/03/09 02:04:55;;;;;;;12.68;7.97;;;1.60;90.30;;;;;;5011847;28;20207;-90
2022/03/09 02:10:11;;;;;;;13.00;7.55;;;1.70;90.70;;;;;;5000795;28;20207;-90
2022/03/09 02:12:40;;;;;;;19.48;9.50;;;1.70;90.80;;;;;;5007506;28;20344;-89
2022/03/09 02:15:10;;;;;;;16.20;8.30;;;1.70;90.90;;;;;;5005009;28;20203;-89
2022/03/09 02:17:41;;;;;;;12.60;7.63;;;1.70;91.10;;;;;;5012906;28;20242;-89
2022/03/09 02:20:11;;;;;;;15.20;8.85;;;1.80;91.20;;;;;;5004457;28;20182;-89
2022/03/09 02:22:48;;;;;;;12.45;8.05;;;2.00;91.40;;;;;;4999390;28;20221;-90
2022/03/09 02:25:19;;;;;;;13.80;8.82;;;1.90;91.30;;;;;;5000069;28;20217;-89
2022/03/09 02:27:49;;;;;;;12.30;7.70;;;1.70;91.40;;;;;;5000376;28;20239;-90
2022/03/09 02:30:24;;;;;;;18.80;8.35;;;1.60;91.10;;;;;;5000967;28;20206;-90
2022/03/09 02:32:58;;;;;;;15.15;8.45;;;1.70;91.00;;;;;;4999427;28;20193;-90
2022/03/09 02:35:30;;;;;;;14.43;7.40;;;1.70;91.10;;;;;;5000226;28;20541;-90
2022/03/09 02:37:59;;;;;;;12.02;7.82;;;1.60;91.30;;;;;;4999748;28;20241;-90
2022/03/09 02:40:29;;;;;;;11.45;8.10;;;1.50;91.30;;;;;;5007495;28;20277;-89
2022/03/09 02:42:59;;;;;;;13.15;8.13;;;1.50;91.20;;;;;;5011769;28;20217;-90
2022/03/09 02:50:56;;;;;;;13.68;7.38;;;1.40;91.40;;;;;;5016483;28;20270;-89
2022/03/09 02:53:46;;;;;;;11.80;6.55;;;1.50;91.50;;;;;;5008032;28;20265;-89
2022/03/09 02:56:17;;;;;;;13.65;7.85;;;1.60;91.60;;;;;;5003846;28;20276;-90
2022/03/09 02:58:58;;;;;;;13.20;7.00;;;1.50;91.50;;;;;;5003932;28;20237;-90
2022/03/09 03:01:30;;;;;;;17.77;8.23;;;1.50;91.60;;;;;;5002012;28;20216;-90
2022/03/09 03:03:59;;;;;;;10.25;6.30;;;1.60;91.80;;;;;;5009567;28;20180;-89
2022/03/09 03:06:36;;;;;;;10.65;6.80;;;1.50;91.70;;;;;;5008447;28;20226;-89
2022/03/09 03:12:03;;;;;;;13.98;8.10;;;1.50;91.80;;;;;;5009572;28;20277;-91
2022/03/09 03:17:59;;;;;;;16.50;7.50;;;1.50;92.30;;;;;;4988469;28;20232;-90
2022/03/09 03:20:42;;;;;;;15.77;6.80;;;1.40;92.30;;;;;;4999148;28;20296;-91
2022/03/09 03:23:24;;;;;;;13.63;7.75;;;1.30;92.50;;;;;;5007595;28;20287;-90
2022/03/09 03:26:32;;;;;;;12.65;7.05;;;1.30;93.10;;;;;;5019832;28;20186;-89
2022/03/09 03:39:13;;;;;;;12.68;7.40;;;1.00;93.60;;;;;;4910165;28;20249;-90
2022/03/09 03:42:28;;;;;;;13.90;8.55;;;1.00;93.90;;;;;;4999364;28;20630;-91
2022/03/09 03:45:23;;;;;;;15.02;8.38;;;1.20;94.00;;;;;;5000850;28;20231;-89
2022/03/09 03:48:25;;;;;;;12.00;6.90;;;1.00;94.30;;;;;;5019231;28;20227;-90
2022/03/09 03:58:17;;;;;;;13.52;7.10;;;1.10;94.40;;;;;;4936117;28;20233;-90
2022/03/09 04:00:56;;;;;;;13.02;7.38;;;0.90;94.50;;;;;;4994443;28;20288;-90
2022/03/09 04:12:31;;;;;;;;;;;;;;;;;;;;;
2022/03/09 04:15:41;;;;;;;12.75;7.03;;;1.00;94.90;;;;;;4981495;28;20216;-90
2022/03/09 04:18:19;;;;;;;14.82;7.35;;;0.90;95.30;;;;;;4956774;28;20217;-89
2022/03/09 04:21:30;;;;;;;10.85;7.03;;;0.80;95.30;;;;;;4959709;28;20213;-89
2022/03/09 04:24:39;;;;;;;9.93;6.30;;;1.10;95.30;;;;;;4947593;28;20222;-90
2022/03/09 04:27:06;;;;;;;12.52;6.38;;;0.90;95.30;;;;;;4988161;23;20237;-87
2022/03/09 04:29:33;;;;;;;12.48;7.70;;;0.80;95.30;;;;;;5011381;28;20201;-87
2022/03/09 04:32:00;;;;;;;10.30;6.60;;;0.70;95.40;;;;;;5000902;28;20215;-87
2022/03/09 04:34:28;;;;;;;12.60;7.70;;;0.80;95.70;;;;;;5000500;28;20211;-87
2022/03/09 04:36:55;;;;;;;13.00;7.25;;;0.70;95.70;;;;;;5000855;28;20319;-87
2022/03/09 04:39:22;;;;;;;13.38;7.40;;;0.90;95.80;;;;;;5015590;28;20232;-86
2022/03/09 04:41:49;;;;;;;12.95;7.20;;;0.70;96.00;;;;;;4999174;28;20303;-86
2022/03/09 04:44:15;;;;;;;10.93;7.05;;;0.80;96.20;;;;;;5007578;28;20206;-86
2022/03/09 04:46:42;;;;;;;10.23;6.45;;;0.90;96.40;;;;;;5013547;28;20230;-86
2022/03/09 04:49:09;;;;;;;12.82;7.10;;;0.80;96.50;;;;;;5013156;28;20214;-86
2022/03/09 04:51:37;;;;;;;14.20;7.75;;;0.60;96.40;;;;;;5008425;28;20279;-87
2022/03/09 04:54:05;;;;;;;10.38;6.78;;;0.80;96.40;;;;;;5011493;28;20232;-87
2022/03/09 04:56:31;;;;;;;12.48;7.75;;;0.70;96.30;;;;;;5001394;28;20320;-87
2022/03/09 04:58:58;;;;;;;14.85;6.97;;;0.70;96.30;;;;;;5000195;28;20251;-86
2022/03/09 05:01:25;;;;;;;11.68;7.03;;;0.60;96.60;;;;;;5000707;28;20270;-86
2022/03/09 05:03:52;;;;;;;11.10;7.10;;;0.60;96.90;;;;;;5000075;28;20687;-86
2022/03/09 05:06:19;;;;;;;15.38;7.65;;;0.50;97.00;;;;;;5013948;28;20199;-86
2022/03/09 05:08:47;;;;;;;13.93;7.03;;;0.60;96.90;;;;;;5016863;28;20206;-86
2022/03/09 05:11:14;;;;;;;13.32;7.32;;;0.70;97.20;;;;;;5003073;28;20214;-86
2022/03/09 05:13:41;;;;;;;16.23;7.40;;;0.40;97.40;;;;;;5012733;28;20283;-86
2022/03/09 05:16:08;;;;;;;12.73;7.07;;;0.40;97.40;;;;;;5018337;28;20212;-87
2022/03/09 05:18:37;;;;;;;12.98;7.10;;;0.40;97.40;;;;;;5016927;28;20671;-86
2022/03/09 05:21:04;;;;;;;10.63;6.90;;;0.60;97.80;;;;;;5007280;28;20203;-87
2022/03/09 05:23:31;;;;;;;12.15;6.82;;;0.60;97.90;;;;;;5005157;28;20208;-86
2022/03/09 05:25:59;;;;;;;12.55;6.75;;;0.70;97.30;;;;;;5004318;28;20297;-87
2022/03/09 05:28:26;;;;;;;13.93;7.78;;;0.80;97.10;;;;;;5002823;28;20241;-87
2022/03/09 05:30:53;;;;;;;11.57;6.90;;;0.70;96.60;;;;;;5001778;28;20267;-87
2022/03/09 05:33:20;;;;;;;15.73;7.40;;;0.50;97.00;;;;;;5002829;28;20237;-88
2022/03/09 05:35:47;;;;;;;12.48;7.65;;;0.50;97.70;;;;;;5008181;28;20643;-87
2022/03/09 05:38:14;;;;;;;10.43;6.63;;;0.60;98.30;;;;;;5009767;28;20241;-87
2022/03/09 05:40:41;;;;;;;13.43;7.00;;;0.70;98.50;;;;;;5007763;28;20263;-87
2022/03/09 05:43:09;;;;;;;12.90;7.22;;;0.40;98.00;;;;;;5003714;28;20284;-87
2022/03/09 05:45:36;;;;;;;11.95;7.25;;;0.40;98.10;;;;;;5003993;28;20204;-88
2022/03/09 05:48:04;;;;;;;12.48;6.97;;;0.70;98.30;;;;;;5003910;28;20262;-88
2022/03/09 05:50:31;;;;;;;15.00;6.90;;;0.70;98.30;;;;;;5008242;28;20203;-87
2022/03/09 05:52:58;;;;;;;11.65;7.13;;;0.70;98.30;;;;;;5007877;28;20680;-88
2022/03/09 05:55:25;;;;;;;13.02;7.40;;;0.70;98.20;;;;;;5006515;28;20303;-87
2022/03/09 05:57:52;;;;;;;14.45;7.32;;;0.50;98.30;;;;;;5008677;28;20634;-85
2022/03/09 06:00:20;;;;;;;12.15;6.57;;;0.50;98.50;;;;;;5004870;28;20225;-86
2022/03/09 06:02:47;;;;;;;14.25;7.35;;;0.40;98.70;;;;;;5005627;28;20251;-86
2022/03/09 06:05:14;;;;;;;12.55;6.63;;;0.30;98.70;;;;;;5004568;28;20268;-86
2022/03/09 06:07:41;;;;;;;12.70;7.45;;;0.50;98.30;;;;;;5005466;28;20265;-86
2022/03/09 06:10:09;;;;;;;11.65;7.18;;;0.70;98.10;;;;;;5016577;28;20240;-87
2022/03/09 06:12:36;;;;;;;13.75;7.93;;;0.40;98.40;;;;;;5019397;28;20184;-86
2022/03/09 06:15:03;;;;;;;12.35;7.78;;;0.40;98.80;;;;;;5015834;28;20210;-86
2022/03/09 06:17:31;;;;;;;16.10;8.30;;;0.30;99.00;;;;;;5017944;28;20296;-86
2022/03/09 06:19:58;;;;;;;17.90;7.70;;;0.30;99.00;;;;;;5017204;28;20224;-86
2022/03/09 06:22:25;;;;;;;11.63;7.68;;;0.30;99.30;;;;;;5014191;28;20213;-86
2022/03/09 06:24:52;;;;;;;12.98;8.40;;;0.30;99.50;;;;;;5011125;28;20300;-86
2022/03/09 06:27:18;;;;;;;13.32;7.72;;;0.20;99.40;;;;;;5010252;28;20259;-86
2022/03/09 06:29:45;;;;;;;14.00;7.55;;;0.40;99.50;;;;;;5006850;28;20216;-88
2022/03/09 06:32:12;;;;;;;14.32;7.75;;;0.40;99.90;;;;;;5004782;28;20204;-87
2022/03/09 06:34:40;;;;;;;12.80;7.47;;;0.50;99.20;;;;;;5005083;28;20254;-86
2022/03/09 06:37:08;;;;;;;12.60;7.43;;;0.50;99.00;;;;;;5004607;28;20264;-87
2022/03/09 06:39:35;;;;;;;17.02;7.68;;;0.60;99.00;;;;;;5004596;28;20768;-86
2022/03/09 06:42:01;;;;;;;14.85;8.02;;;0.70;98.80;;;;;;5003163;28;20210;-87
2022/03/09 06:44:29;;;;;;;19.17;9.65;;;0.60;99.10;;;;;;5002395;28;20240;-87
2022/03/09 06:46:57;;;;;;;12.98;8.50;;;0.70;99.10;;;;;;5004919;28;20256;-87
2022/03/09 06:49:27;;;;;;;12.93;8.25;;;0.70;99.00;;;;;;5002118;28;20200;-86
2022/03/09 06:51:55;;;;;;;16.40;7.70;;;0.70;99.00;;;;;;5005673;28;20197;-87
2022/03/09 06:54:23;;;;;;;16.58;8.95;;;0.90;99.10;;;;;;5004460;28;20307;-87
2022/03/09 06:56:51;;;;;;;16.27;8.85;;;0.90;98.90;;;;;;5004770;28;20233;-86
2022/03/09 06:59:18;;;;;;;19.98;10.30;;;0.90;99.30;;;;;;5005278;28;20226;-88
2022/03/09 07:01:45;;;;;;;17.10;8.52;;;1.00;99.00;;;;;;5001822;28;20293;-87
2022/03/09 07:04:12;;;;;;;17.00;9.93;;;1.10;98.40;;;;;;5002910;28;20560;-88
2022/03/09 07:06:39;;;;;;;15.23;9.38;;;1.10;98.00;;;;;;5009419;28;20258;-87
2022/03/09 07:09:08;;;;;;;17.35;9.50;;;1.40;98.00;;;;;;5011518;28;20217;-88
2022/03/09 07:11:35;;;;;;;17.90;9.45;;;1.30;98.10;;;;;;5004747;28;20214;-87
2022/03/09 07:14:02;;;;;;;18.70;9.48;;;1.30;98.10;;;;;;5004846;28;20212;-88
2022/03/09 07:16:29;;;;;;;13.68;8.25;;;1.40;98.00;;;;;;5001550;28;20249;-88
2022/03/09 07:18:56;;;;;;;20.65;11.27;;;1.40;97.40;;;;;;5005339;28;20191;-87
2022/03/09 07:21:24;;;;;;;20.38;10.20;;;1.50;97.40;;;;;;5014791;28;20192;-88
2022/03/09 07:23:51;;;;;;;19.75;10.93;;;1.70;97.30;;;;;;5010821;28;20251;-88
2022/03/09 07:26:19;;;;;;;20.63;12.43;;;1.90;97.30;;;;;;5003793;28;20592;-88
2022/03/09 07:28:47;;;;;;;30.13;12.07;;;1.90;97.30;;;;;;5003322;28;20193;-88
2022/03/09 07:31:16;;;;;;;36.17;11.60;;;2.10;97.70;;;;;;5010285;28;20203;-87
2022/03/09 07:33:45;;;;;;;17.15;9.77;;;2.10;97.60;;;;;;5006364;28;20605;-89
2022/03/09 07:36:13;;;;;;;19.08;10.77;;;2.40;97.40;;;;;;5006397;28;20268;-89
2022/03/09 07:38:40;;;;;;;21.52;10.10;;;2.10;96.40;;;;;;5014802;28;20218;-87
2022/03/09 07:41:07;;;;;;;19.13;9.93;;;2.20;95.80;;;;;;5013963;28;20234;-87
2022/03/09 07:43:36;;;;;;;17.88;10.32;;;2.30;95.50;;;;;;5005503;28;20239;-88
2022/03/09 07:46:03;;;;;;;18.65;9.85;;;2.50;95.40;;;;;;5003806;28;20269;-88
2022/03/09 07:48:31;;;;;;;18.08;10.30;;;2.70;95.30;;;;;;5007499;28;20214;-87
2022/03/09 07:50:58;;;;;;;17.20;10.43;;;2.80;94.90;;;;;;5007798;28;20279;-86
2022/03/09 07:53:25;;;;;;;23.65;11.65;;;3.00;94.20;;;;;;5005825;28;20651;-87
2022/03/09 07:55:52;;;;;;;17.98;9.30;;;3.00;94.10;;;;;;5007609;28;20274;-85
2022/03/09 07:58:19;;;;;;;17.65;9.43;;;3.00;93.70;;;;;;5006347;28;20311;-88
2022/03/09 08:00:48;;;;;;;18.23;9.73;;;3.20;93.00;;;;;;5011664;28;20254;-86
2022/03/09 08:03:15;;;;;;;15.55;9.88;;;3.10;93.00;;;;;;5016758;28;20222;-87
2022/03/09 08:05:44;;;;;;;23.15;10.80;;;2.90;92.20;;;;;;5009753;28;20325;-88
2022/03/09 08:08:11;;;;;;;17.95;10.02;;;3.30;92.30;;;;;;5006623;28;20231;-88
2022/03/09 08:10:38;;;;;;;24.75;10.52;;;3.40;92.60;;;;;;5006100;28;20234;-87
2022/03/09 08:13:05;;;;;;;18.25;10.18;;;3.30;92.30;;;;;;5016220;28;20251;-87
2022/03/09 08:15:34;;;;;;;18.13;10.07;;;3.50;92.10;;;;;;5012103;28;20286;-87
2022/03/09 08:18:03;;;;;;;18.70;11.00;;;3.60;92.00;;;;;;5014157;28;20229;-87
2022/03/09 08:20:30;;;;;;;16.75;11.10;;;3.60;91.70;;;;;;5009442;28;20407;-87
2022/03/09 08:22:57;;;;;;;18.00;10.48;;;3.60;91.50;;;;;;5008694;28;20211;-88
2022/03/09 08:25:24;;;;;;;15.75;10.20;;;4.00;91.40;;;;;;5006608;28;20247;-87
2022/03/09 08:27:51;;;;;;;16.63;10.25;;;4.10;91.00;;;;;;5003502;28;20266;-88
2022/03/09 08:30:18;;;;;;;14.43;10.20;;;4.30;91.30;;;;;;5002259;28;20210;-88
2022/03/09 08:32:45;;;;;;;23.27;12.93;;;4.70;90.70;;;;;;5001428;28;20222;-88
2022/03/09 08:35:13;;;;;;;14.35;9.95;;;4.80;90.20;;;;;;5002055;28;20631;-86
2022/03/09 08:37:40;;;;;;;13.02;8.95;;;4.90;89.40;;;;;;5005509;28;20251;-88
2022/03/09 08:40:09;;;;;;;20.67;8.80;;;4.90;86.40;;;;;;5002454;28;20701;-88
2022/03/09 08:42:36;;;;;;;15.10;8.80;;;5.20;84.80;;;;;;5009459;28;20564;-87
2022/03/09 08:45:04;;;;;;;13.50;8.45;;;5.20;83.20;;;;;;5010829;28;20204;-88
2022/03/09 08:47:31;;;;;;;13.32;8.40;;;5.00;82.40;;;;;;5003271;28;20246;-86
2022/03/09 08:49:58;;;;;;;18.42;9.02;;;5.00;81.90;;;;;;5007459;28;20248;-85
2022/03/09 08:52:26;;;;;;;19.42;9.73;;;5.40;82.10;;;;;;5020823;28;20239;-87
2022/03/09 08:54:54;;;;;;;14.23;9.27;;;5.40;82.00;;;;;;5009212;28;20236;-88
2022/03/09 08:57:21;;;;;;;15.00;9.60;;;5.40;81.70;;;;;;5005670;28;20274;-87
2022/03/09 08:59:49;;;;;;;13.75;9.02;;;5.90;81.40;;;;;;5009935;28;20255;-87
2022/03/09 09:02:16;;;;;;;14.68;8.40;;;5.70;81.00;;;;;;5019542;28;20219;-86
2022/03/09 09:04:43;;;;;;;12.00;8.02;;;5.80;80.60;;;;;;5021921;28;20192;-85
2022/03/09 09:07:10;;;;;;;13.35;8.95;;;5.90;79.60;;;;;;5014631;28;20255;-86
2022/03/09 09:09:38;;;;;;;18.17;8.40;;;6.20;79.20;;;;;;5019737;28;20191;-86
2022/03/09 09:12:06;;;;;;;13.25;9.00;;;5.70;78.30;;;;;;5017490;28;20192;-86
2022/03/09 09:14:33;;;;;;;12.15;8.40;;;6.10;77.50;;;;;;5012680;28;20279;-88
2022/03/09 09:17:00;;;;;;;16.83;9.13;;;6.40;77.10;;;;;;5009119;28;20234;-87
2022/03/09 09:19:27;;;;;;;13.45;8.15;;;6.50;76.90;;;;;;5011021;28;20263;-88
2022/03/09 09:21:54;;;;;;;12.65;8.63;;;6.50;76.10;;;;;;5011362;28;20223;-86
2022/03/09 09:24:21;;;;;;;16.75;8.82;;;6.60;76.10;;;;;;5010576;28;20208;-87
2022/03/09 09:26:49;;;;;;;22.98;9.48;;;6.70;75.80;;;;;;5009436;28;20231;-87
2022/03/09 09:29:16;;;;;;;21.07;10.80;;;6.80;75.30;;;;;;5007355;28;20235;-87
2022/03/09 09:31:43;;;;;;;14.60;9.73;;;6.80;75.50;;;;;;5007323;28;20457;-87
2022/03/09 09:34:10;;;;;;;17.05;9.82;;;6.90;75.40;;;;;;5005052;28;20208;-87
2022/03/09 09:36:39;;;;;;;23.42;10.40;;;7.10;75.50;;;;;;5004906;28;20315;-88
2022/03/09 09:39:05;;;;;;;14.20;9.05;;;7.10;75.00;;;;;;5005424;28;20235;-87
2022/03/09 09:41:34;;;;;;;17.10;9.95;;;7.40;74.20;;;;;;5010366;28;20247;-87
2022/03/09 09:44:02;;;;;;;21.48;10.68;;;7.50;73.80;;;;;;5018421;28;20239;-86
2022/03/09 09:46:30;;;;;;;15.57;9.73;;;7.60;73.30;;;;;;5010466;28;20228;-87
2022/03/09 09:48:57;;;;;;;14.83;10.17;;;7.70;71.20;;;;;;5013217;28;20451;-87
2022/03/09 09:51:25;;;;;;;17.27;9.55;;;7.80;70.00;;;;;;5008885;28;20444;-86
2022/03/09 09:53:52;;;;;;;18.47;11.10;;;7.90;69.10;;;;;;5006211;28;20251;-87
2022/03/09 09:56:22;;;;;;;15.77;10.00;;;7.80;67.60;;;;;;5004390;28;20550;-87
2022/03/09 09:58:50;;;;;;;13.23;9.23;;;7.90;67.20;;;;;;5006459;28;20506;-87
2022/03/09 10:01:19;;;;;;;19.45;14.25;;;8.00;67.80;;;;;;5008488;28;20515;-88
2022/03/09 10:03:46;;;;;;;20.37;12.77;;;8.10;66.90;;;;;;5006109;28;20274;-87
2022/03/09 10:06:13;;;;;;;14.97;10.73;;;8.20;66.20;;;;;;5006311;28;20897;-86
2022/03/09 10:08:40;;;;;;;16.53;11.07;;;8.30;65.80;;;;;;5004920;28;20905;-88
2022/03/09 10:11:07;;;;;;;17.47;11.00;;;8.50;65.50;;;;;;5002737;28;20530;-87
2022/03/09 10:13:38;;;;;;;16.10;10.60;;;8.60;65.50;;;;;;5003033;28;20955;-89
2022/03/09 10:16:13;;;;;;;18.23;12.47;;;8.70;63.80;;;;;;5002318;28;20461;-88
2022/03/09 10:18:49;;;;;;;16.93;10.87;;;8.80;63.10;;;;;;5005517;28;20447;-87
2022/03/09 10:21:18;;;;;;;15.13;9.40;;;8.90;62.00;;;;;;5003049;28;20474;-86
2022/03/09 10:23:59;;;;;;;15.00;10.10;;;9.00;60.90;;;;;;5003839;28;20444;-87
2022/03/09 10:26:28;;;;;;;15.57;10.90;;;8.90;60.50;;;;;;5003407;28;20872;-87
2022/03/09 10:29:01;;;;;;;17.90;11.80;;;9.00;59.60;;;;;;5003037;28;20478;-88
2022/03/09 10:31:35;;;;;;;16.57;10.67;;;9.00;59.80;;;;;;5003895;28;20522;-87
2022/03/09 10:34:09;;;;;;;14.83;8.30;;;9.10;61.70;;;;;;5003678;28;20468;-87
2022/03/09 10:36:36;;;;;;;19.50;12.00;;;9.10;62.40;;;;;;5002406;28;21056;-87
2022/03/09 10:39:18;;;;;;;17.00;11.03;;;8.90;62.50;;;;;;5003396;28;20491;-86
2022/03/09 10:41:45;;;;;;;17.67;10.80;;;9.10;62.40;;;;;;5004321;28;20550;-85
2022/03/09 10:44:12;;;;;;;17.93;11.50;;;9.10;63.40;;;;;;5015591;28;20455;-87
2022/03/09 10:46:47;;;;;;;21.67;12.00;;;9.10;63.70;;;;;;5011591;28;20452;-88
2022/03/09 10:49:19;;;;;;;26.20;12.47;;;9.00;63.90;;;;;;5007479;28;20890;-87
2022/03/09 10:51:49;;;;;;;16.80;10.80;;;9.10;64.00;;;;;;5008798;28;20443;-88
2022/03/09 10:54:23;;;;;;;18.97;11.83;;;9.10;64.60;;;;;;5006354;28;20495;-87
2022/03/09 10:56:51;;;;;;;20.60;12.80;;;9.20;64.70;;;;;;5005339;28;20465;-87
2022/03/09 10:59:21;;;;;;;25.50;13.83;;;9.20;65.00;;;;;;5002329;28;20479;-88
2022/03/09 11:02:04;;;;;;;21.87;10.73;;;9.20;64.00;;;;;;5003496;28;20467;-87
2022/03/09 11:04:32;;;;;;;23.10;12.80;;;9.30;63.60;;;;;;5016706;28;20458;-87
2022/03/09 11:06:59;;;;;;;17.90;11.70;;;9.40;64.40;;;;;;5018502;28;20530;-87
2022/03/09 11:09:27;;;;;;;17.53;11.40;;;9.50;62.90;;;;;;5019260;28;20439;-88
2022/03/09 11:11:55;;;;;;;17.23;11.43;;;9.50;62.20;;;;;;5016004;28;20452;-87
2022/03/09 11:14:25;;;;;;;17.07;11.20;;;9.60;61.70;;;;;;5007813;28;20498;-86
2022/03/09 11:16:53;;;;;;;18.73;12.13;;;9.60;61.30;;;;;;5012716;28;20463;-88
2022/03/09 11:19:21;;;;;;;19.20;12.63;;;9.70;61.90;;;;;;5010284;28;20458;-88
2022/03/09 11:21:50;;;;;;;17.57;10.60;;;9.80;60.30;;;;;;5013389;28;20484;-89
2022/03/09 11:24:20;;;;;;;22.53;11.50;;;9.80;60.10;;;;;;5012214;28;20490;-88
2022/03/09 11:26:50;;;;;;;27.57;13.03;;;9.90;59.70;;;;;;5014079;28;20471;-87
2022/03/09 11:29:28;;;;;;;16.77;10.73;;;9.90;59.30;;;;;;5011499;28;20523;-87
2022/03/09 11:31:55;;;;;;;16.20;8.70;;;10.00;57.30;;;;;;5007622;28;20406;-88
2022/03/09 11:34:41;;;;;;;19.67;12.63;;;10.00;56.60;;;;;;5006597;28;20460;-88
2022/03/09 11:37:11;;;;;;;18.43;10.10;;;10.10;56.40;;;;;;5010290;28;20518;-87
2022/03/09 11:39:40;;;;;;;20.07;11.50;;;10.10;55.40;;;;;;5013834;28;20422;-87
2022/03/09 11:42:28;;;;;;;21.93;13.80;;;10.10;55.30;;;;;;5006226;28;20479;-87
2022/03/09 11:44:56;;;;;;;19.97;11.10;;;10.10;54.80;;;;;;5007816;28;20459;-87
2022/03/09 11:47:24;;;;;;;20.17;13.40;;;10.20;54.70;;;;;;5009518;28;20482;-87
2022/03/09 11:50:09;;;;;;;19.03;12.80;;;10.20;54.40;;;;;;5005645;28;20492;-88
2022/03/09 11:52:55;;;;;;;18.90;13.27;;;10.30;54.20;;;;;;5003813;28;20535;-88
2022/03/09 11:55:23;;;;;;;21.90;12.97;;;10.40;53.20;;;;;;5005306;28;20823;-88
2022/03/09 11:58:09;;;;;;;23.73;12.47;;;10.40;53.00;;;;;;5006420;28;20510;-88
2022/03/09 12:00:40;;;;;;;18.17;9.30;;;10.40;52.90;;;;;;5013045;28;20462;-88
2022/03/09 12:03:07;;;;;;;17.27;10.63;;;10.50;52.20;;;;;;5014083;28;20869;-87
2022/03/09 12:05:38;;;;;;;18.00;11.87;;;10.40;50.70;;;;;;5010563;28;20458;-88
2022/03/09 12:08:08;;;;;;;19.33;12.40;;;10.30;51.20;;;;;;5017668;28;20531;-88
2022/03/09 12:10:56;;;;;;;17.67;11.20;;;10.40;51.30;;;;;;5009332;28;20435;-87
2022/03/09 12:13:31;;;;;;;18.40;11.30;;;10.50;51.10;;;;;;5005669;28;20448;-88
2022/03/09 12:16:22;;;;;;;15.27;9.80;;;10.70;50.90;;;;;;5009263;28;20482;-86
2022/03/09 12:19:07;;;;;;;17.97;11.83;;;10.60;50.20;;;;;;5008340;28;20432;-87
2022/03/09 12:22:05;;;;;;;18.90;11.40;;;10.50;49.50;;;;;;5009320;28;20555;-87
2022/03/09 12:24:36;;;;;;;18.13;11.50;;;10.50;49.20;;;;;;5008004;28;20456;-86
2022/03/09 12:27:26;;;;;;;18.67;12.93;;;10.50;48.60;;;;;;5001985;28;20855;-87
2022/03/09 12:29:53;;;;;;;18.87;12.03;;;10.50;48.90;;;;;;5005729;28;20447;-86
2022/03/09 12:32:22;;;;;;;19.37;11.80;;;10.50;48.70;;;;;;5003861;28;20421;-87
2022/03/09 12:34:50;;;;;;;19.73;11.77;;;10.60;48.10;;;;;;5003578;28;20414;-87
2022/03/09 12:37:21;;;;;;;22.10;11.50;;;10.60;48.10;;;;;;5003770;28;20559;-86
2022/03/09 12:39:57;;;;;;;25.23;9.43;;;10.80;48.70;;;;;;5013808;28;20440;-87
2022/03/09 12:42:28;;;;;;;21.37;12.50;;;10.70;47.70;;;;;;5003880;28;20522;-87
2022/03/09 12:44:58;;;;;;;18.60;11.40;;;10.70;48.00;;;;;;5002282;28;20439;-88
2022/03/09 12:47:34;;;;;;;15.60;11.17;;;10.80;46.60;;;;;;5002163;28;20467;-88
2022/03/09 12:50:02;;;;;;;20.17;12.73;;;10.90;47.60;;;;;;5002560;28;20430;-87
2022/03/09 12:52:41;;;;;;;21.07;13.00;;;10.90;48.10;;;;;;5000989;28;20897;-88
2022/03/09 12:55:10;;;;;;;19.37;12.60;;;11.00;48.00;;;;;;5001807;28;20423;-86
2022/03/09 12:57:38;;;;;;;19.67;12.00;;;11.00;48.40;;;;;;5001707;28;20506;-86
2022/03/09 13:00:08;;;;;;;17.23;11.50;;;11.00;47.20;;;;;;5001230;28;20459;-87
2022/03/09 13:02:41;;;;;;;19.47;12.43;;;11.10;47.00;;;;;;5002393;28;20482;-87
2022/03/09 13:05:09;;;;;;;19.60;12.47;;;11.20;46.70;;;;;;5003744;28;20410;-88
2022/03/09 13:07:36;;;;;;;20.23;11.90;;;11.20;46.20;;;;;;5003789;28;20475;-88
2022/03/09 13:10:14;;;;;;;19.53;11.87;;;11.20;46.20;;;;;;5004340;28;20425;-86
2022/03/09 13:12:51;;;;;;;13.87;10.70;;;11.20;46.00;;;;;;5005536;28;20432;-87
2022/03/09 13:15:19;;;;;;;18.30;11.57;;;11.20;46.40;;;;;;5009863;28;20402;-86
2022/03/09 13:17:47;;;;;;;19.27;11.70;;;11.30;46.40;;;;;;5007371;28;20474;-87
2022/03/09 13:20:16;;;;;;;18.73;12.13;;;11.20;46.80;;;;;;5003815;28;20459;-87
2022/03/09 13:22:46;;;;;;;20.40;13.27;;;11.20;46.70;;;;;;4983877;28;20503;-87
2022/03/09 13:25:16;;;;;;;18.30;11.60;;;11.30;46.30;;;;;;4985324;28;20459;-86
2022/03/09 13:27:43;;;;;;;18.40;12.00;;;11.30;46.10;;;;;;4989886;28;20507;-87
2022/03/09 13:30:19;;;;;;;22.53;12.10;;;11.30;46.20;;;;;;4997333;28;20440;-88
2022/03/09 13:32:47;;;;;;;20.50;13.20;;;11.40;46.30;;;;;;4994614;28;20422;-88
2022/03/09 13:35:18;;;;;;;17.10;12.90;;;11.40;46.30;;;;;;4982772;28;20438;-85
2022/03/09 13:37:45;;;;;;;20.20;13.77;;;11.40;45.90;;;;;;4987517;28;20495;-86
2022/03/09 13:40:14;;;;;;;21.60;13.60;;;11.50;46.10;;;;;;4988819;28;20426;-88
2022/03/09 13:42:44;;;;;;;21.17;13.00;;;11.50;46.10;;;;;;4992243;28;20507;-86
2022/03/09 13:45:14;;;;;;;19.00;12.33;;;11.60;45.50;;;;;;4989812;28;20456;-86
2022/03/09 13:47:49;;;;;;;20.90;13.23;;;11.60;45.80;;;;;;4986685;28;20480;-87
2022/03/09 13:50:25;;;;;;;17.83;13.27;;;11.60;45.70;;;;;;4986304;28;20959;-88
2022/03/09 13:52:53;;;;;;;18.40;12.50;;;11.70;45.70;;;;;;4984163;28;20528;-88
2022/03/09 13:55:27;;;;;;;22.40;13.43;;;11.70;45.30;;;;;;4985723;28;20431;-86
2022/03/09 13:58:08;;;;;;;16.20;11.67;;;11.80;44.60;;;;;;4986776;28;20556;-86
2022/03/09 14:00:37;;;;;;;19.30;11.83;;;11.80;43.70;;;;;;4989337;28;20499;-86
2022/03/09 14:03:13;;;;;;;18.27;12.67;;;11.80;43.70;;;;;;4988667;28;20519;-87
2022/03/09 14:05:43;;;;;;;21.00;14.17;;;11.90;44.20;;;;;;4990470;28;20885;-86
2022/03/09 14:08:10;;;;;;;19.03;13.10;;;12.00;45.00;;;;;;4995534;28;20468;-87
2022/03/09 14:10:40;;;;;;;23.53;12.90;;;12.10;45.30;;;;;;4995730;28;20434;-87
2022/03/09 14:13:12;;;;;;;19.23;13.63;;;12.20;45.20;;;;;;4990121;28;20427;-87
2022/03/09 14:15:40;;;;;;;23.57;14.63;;;12.20;45.20;;;;;;4989024;28;20423;-87